PWSweather.com
Personal Weather Stations
Station Observations
VPOKROGLO
Kal Nad Kanalom, PrimorskaSI

Kal Nad KanalomPrimorskaSI

Lat: 46.072, Lon: 13.734

Elevation: 2526

Station Type: WS-2355

http://www.okroglovreme.com

Latest ConditionsUpdated 5:15:05 AM GMT+01:01 Thursday, Jul 24, 2014
Currently Today's Max Today's Min Today's Average
Temperature 61.5°F16.4°C 63.1°F17.3°C 61.2°F16.2°C 62.3°F16.8°C
Dew Point 48.4°F9.1°C 49.3°F9.6°C 47.9°F8.8°C 48.7°F9.3°C
Winds Calm Calm 0.2 mph NW0.3 kmh NW - 0.0 mph 0.0 kmh
Wind Gusts -- 2.9 mph4.7 kmh - -
Humidity 62% 62% 60% 61%
Pressure 29.89 in1012.2 mb 29.93 in1013.5 mb 29.89 in1012.2 mb -
Hour Temp Dew Point Humidity Winds Wind Gusts Pressure Precip Precip Rate Daily Precip Total
05:15 AM 61.5°F16.4°C 48.4°F9.1°C 62% Calm Calm -- 29.89 in1012.2 mb 0.00 in0.0 mm 0.00 in/hr0.0 mm/hr 0.00 in0.0 mm
05:00 AM 61.3°F16.3°C 48.3°F9.1°C 62% Calm Calm 0.9 mph1.4 kmh 29.89 in1012.2 mb 0.00 in0.0 mm 0.00 in/hr0.0 mm/hr 0.00 in0.0 mm
04:45 AM 61.3°F16.3°C 48.3°F9.1°C 62% Calm Calm -- 29.90 in1012.5 mb 0.00 in0.0 mm 0.00 in/hr0.0 mm/hr 0.00 in0.0 mm
04:30 AM 61.5°F16.4°C 48.4°F9.1°C 62% Calm Calm -- 29.90 in1012.5 mb 0.00 in0.0 mm 0.00 in/hr0.0 mm/hr 0.00 in0.0 mm
04:15 AM 61.3°F16.3°C 48.3°F9.1°C 62% Calm Calm -- 29.90 in1012.5 mb 0.00 in0.0 mm 0.00 in/hr0.0 mm/hr 0.00 in0.0 mm
04:00 AM 61.2°F16.2°C 48.1°F8.9°C 62% Calm Calm -- 29.90 in1012.5 mb 0.00 in0.0 mm 0.00 in/hr0.0 mm/hr 0.00 in0.0 mm
03:45 AM 61.5°F16.4°C 48.4°F9.1°C 62% Calm Calm -- 29.90 in1012.5 mb 0.00 in0.0 mm 0.00 in/hr0.0 mm/hr 0.00 in0.0 mm
03:30 AM 61.9°F16.6°C 47.9°F8.8°C 60% Calm Calm 1.1 mph1.8 kmh 29.90 in1012.5 mb 0.00 in0.0 mm 0.00 in/hr0.0 mm/hr 0.00 in0.0 mm
03:15 AM 62.2°F16.8°C 48.2°F9.0°C 60% Calm Calm -- 29.90 in1012.5 mb 0.00 in0.0 mm 0.00 in/hr0.0 mm/hr 0.00 in0.0 mm
03:00 AM 62.4°F16.9°C 48.8°F9.3°C 61% 0.2 mph NW0.3 kmh NW 2.7 mph4.3 kmh 29.90 in1012.5 mb 0.00 in0.0 mm 0.00 in/hr0.0 mm/hr 0.00 in0.0 mm
02:45 AM 62.6°F17.0°C 48.6°F9.2°C 60% Calm Calm -- 29.91 in1012.9 mb 0.00 in0.0 mm 0.00 in/hr0.0 mm/hr 0.00 in0.0 mm
02:30 AM 63.1°F17.3°C 49.0°F9.4°C 60% Calm Calm -- 29.91 in1012.9 mb 0.00 in0.0 mm 0.00 in/hr0.0 mm/hr 0.00 in0.0 mm
02:15 AM 63.1°F17.3°C 49.0°F9.4°C 60% 0.1 mph NE0.2 kmh NE 0.9 mph1.4 kmh 29.91 in1012.9 mb 0.00 in0.0 mm 0.00 in/hr0.0 mm/hr 0.00 in0.0 mm
02:00 AM 62.8°F17.1°C 49.1°F9.5°C 61% 0.2 mph SE0.3 kmh SE 2.5 mph4.0 kmh 29.91 in1012.9 mb 0.00 in0.0 mm 0.00 in/hr0.0 mm/hr 0.00 in0.0 mm
01:45 AM 62.8°F17.1°C 49.1°F9.5°C 61% Calm Calm -- 29.92 in1013.2 mb 0.00 in0.0 mm 0.00 in/hr0.0 mm/hr 0.00 in0.0 mm
01:30 AM 62.8°F17.1°C 49.1°F9.5°C 61% Calm Calm -- 29.92 in1013.2 mb 0.00 in0.0 mm 0.00 in/hr0.0 mm/hr 0.00 in0.0 mm
01:15 AM 63.0°F17.2°C 48.9°F9.4°C 60% 0.1 mph N0.2 kmh N 1.3 mph2.1 kmh 29.92 in1013.2 mb 0.00 in0.0 mm 0.00 in/hr0.0 mm/hr 0.00 in0.0 mm
01:00 AM 63.1°F17.3°C 49.0°F9.4°C 60% Calm Calm 1.3 mph2.1 kmh 29.92 in1013.2 mb 0.00 in0.0 mm 0.00 in/hr0.0 mm/hr 0.00 in0.0 mm
12:45 AM 63.1°F17.3°C 49.0°F9.4°C 60% 0.1 mph NE0.2 kmh NE 1.1 mph1.8 kmh 29.92 in1013.2 mb 0.00 in0.0 mm 0.00 in/hr0.0 mm/hr 0.00 in0.0 mm
12:30 AM 62.8°F17.1°C 49.1°F9.5°C 61% Calm Calm 1.6 mph2.6 kmh 29.93 in1013.5 mb 0.00 in0.0 mm 0.00 in/hr0.0 mm/hr 0.00 in0.0 mm
12:15 AM 63.0°F17.2°C 49.3°F9.6°C 61% 0.1 mph N0.2 kmh N 0.9 mph1.4 kmh 29.93 in1013.5 mb 0.00 in0.0 mm 0.00 in/hr0.0 mm/hr 0.00 in0.0 mm
12:00 AM 62.8°F17.1°C 49.1°F9.5°C 61% 0.1 mph NE0.2 kmh NE 2.9 mph4.7 kmh 29.93 in1013.5 mb 0.00 in0.0 mm 0.00 in/hr0.0 mm/hr 0.00 in0.0 mm